sensor_id;sensor_type;location;lat;lon;timestamp;pressure;altitude;pressure_sealevel;temperature;humidity
43691;BME280;29293;52.190;21.226;2022-11-30T00:10:31;101585.23;;;-0.06;100.00
43691;BME280;29293;52.190;21.226;2022-11-30T00:25:39;101581.23;;;-0.08;100.00
43691;BME280;29293;52.190;21.226;2022-11-30T00:40:46;101581.66;;;-0.10;100.00
43691;BME280;29293;52.190;21.226;2022-11-30T00:55:54;101589.80;;;-0.12;100.00
43691;BME280;29293;52.190;21.226;2022-11-30T01:11:07;101588.20;;;-0.09;100.00
43691;BME280;29293;52.190;21.226;2022-11-30T01:26:16;101589.83;;;-0.10;100.00
43691;BME280;29293;52.190;21.226;2022-11-30T01:41:25;101590.63;;;-0.11;100.00
43691;BME280;29293;52.190;21.226;2022-11-30T01:56:32;101600.72;;;-0.10;100.00
43691;BME280;29293;52.190;21.226;2022-11-30T02:11:40;101606.71;;;-0.09;100.00
43691;BME280;29293;52.190;21.226;2022-11-30T02:27:07;101601.18;;;-0.06;100.00
43691;BME280;29293;52.190;21.226;2022-11-30T02:42:16;101614.46;;;-0.04;100.00
43691;BME280;29293;52.190;21.226;2022-11-30T02:57:23;101624.45;;;-0.08;100.00
43691;BME280;29293;52.190;21.226;2022-11-30T03:12:31;101620.84;;;-0.07;100.00
43691;BME280;29293;52.190;21.226;2022-11-30T03:27:38;101632.50;;;-0.06;100.00
43691;BME280;29293;52.190;21.226;2022-11-30T03:42:45;101640.87;;;-0.06;100.00
43691;BME280;29293;52.190;21.226;2022-11-30T03:57:53;101653.06;;;-0.04;100.00
43691;BME280;29293;52.190;21.226;2022-11-30T04:13:00;101655.98;;;-0.05;100.00
43691;BME280;29293;52.190;21.226;2022-11-30T04:28:08;101657.54;;;-0.11;100.00
43691;BME280;29293;52.190;21.226;2022-11-30T04:43:16;101662.88;;;-0.15;100.00
43691;BME280;29293;52.190;21.226;2022-11-30T04:58:23;101662.31;;;-0.18;100.00
43691;BME280;29293;52.190;21.226;2022-11-30T05:13:31;101673.45;;;-0.17;100.00
43691;BME280;29293;52.190;21.226;2022-11-30T05:28:38;101682.46;;;-0.15;100.00
43691;BME280;29293;52.190;21.226;2022-11-30T05:43:53;101690.29;;;-0.19;100.00
43691;BME280;29293;52.190;21.226;2022-11-30T05:59:01;101700.69;;;-0.20;100.00
43691;BME280;29293;52.190;21.226;2022-11-30T06:14:09;101698.46;;;-0.30;100.00
43691;BME280;29293;52.190;21.226;2022-11-30T06:29:16;101711.04;;;-0.25;100.00
43691;BME280;29293;52.190;21.226;2022-11-30T06:44:25;101716.48;;;-0.23;100.00
43691;BME280;29293;52.190;21.226;2022-11-30T06:59:33;101737.86;;;-0.20;100.00
43691;BME280;29293;52.190;21.226;2022-11-30T07:14:41;101743.91;;;-0.20;100.00
43691;BME280;29293;52.190;21.226;2022-11-30T07:29:49;101741.24;;;-0.17;100.00
43691;BME280;29293;52.190;21.226;2022-11-30T07:44:57;101749.08;;;-0.13;100.00
43691;BME280;29293;52.190;21.226;2022-11-30T08:00:07;101759.54;;;-0.09;100.00
43691;BME280;29293;52.190;21.226;2022-11-30T08:15:16;101751.21;;;-0.06;100.00
43691;BME280;29293;52.190;21.226;2022-11-30T08:30:23;101748.57;;;0.01;100.00
43691;BME280;29293;52.190;21.226;2022-11-30T08:45:31;101758.17;;;0.05;100.00
43691;BME280;29293;52.190;21.226;2022-11-30T09:00:38;101761.66;;;0.06;100.00
43691;BME280;29293;52.190;21.226;2022-11-30T09:15:52;101759.02;;;0.13;100.00
43691;BME280;29293;52.190;21.226;2022-11-30T09:31:03;101761.18;;;0.20;100.00
43691;BME280;29293;52.190;21.226;2022-11-30T09:46:12;101767.31;;;0.29;100.00
43691;BME280;29293;52.190;21.226;2022-11-30T10:01:21;101764.51;;;0.35;100.00
43691;BME280;29293;52.190;21.226;2022-11-30T10:16:33;101751.12;;;0.43;100.00
43691;BME280;29293;52.190;21.226;2022-11-30T10:31:46;101751.86;;;0.63;100.00
43691;BME280;29293;52.190;21.226;2022-11-30T10:46:57;101756.75;;;0.69;100.00
43691;BME280;29293;52.190;21.226;2022-11-30T11:02:34;101758.39;;;0.64;100.00
43691;BME280;29293;52.190;21.226;2022-11-30T11:17:43;101750.59;;;0.67;100.00
43691;BME280;29293;52.190;21.226;2022-11-30T11:33:00;101740.58;;;0.68;100.00
43691;BME280;29293;52.190;21.226;2022-11-30T11:48:28;101739.46;;;0.65;100.00
43691;BME280;29293;52.190;21.226;2022-11-30T12:03:40;101738.02;;;0.62;100.00
43691;BME280;29293;52.190;21.226;2022-11-30T12:18:55;101746.11;;;0.60;100.00
43691;BME280;29293;52.190;21.226;2022-11-30T12:34:11;101743.41;;;0.58;100.00
43691;BME280;29293;52.190;21.226;2022-11-30T12:49:32;101751.37;;;0.59;100.00
43691;BME280;29293;52.190;21.226;2022-11-30T13:04:46;101756.28;;;0.63;100.00
43691;BME280;29293;52.190;21.226;2022-11-30T13:19:59;101753.85;;;0.69;100.00
43691;BME280;29293;52.190;21.226;2022-11-30T13:35:49;101750.78;;;0.74;100.00
43691;BME280;29293;52.190;21.226;2022-11-30T13:50:59;101750.30;;;0.73;100.00
43691;BME280;29293;52.190;21.226;2022-11-30T14:06:47;101749.98;;;0.72;100.00
43691;BME280;29293;52.190;21.226;2022-11-30T14:21:55;101753.02;;;0.72;100.00
43691;BME280;29293;52.190;21.226;2022-11-30T14:37:11;101762.89;;;0.70;100.00
43691;BME280;29293;52.190;21.226;2022-11-30T14:52:46;101763.09;;;0.66;100.00
43691;BME280;29293;52.190;21.226;2022-11-30T15:07:57;101772.58;;;0.62;100.00
43691;BME280;29293;52.190;21.226;2022-11-30T15:23:10;101769.36;;;0.62;100.00
43691;BME280;29293;52.190;21.226;2022-11-30T15:38:20;101773.52;;;0.64;100.00
43691;BME280;29293;52.190;21.226;2022-11-30T15:53:33;101783.53;;;0.64;100.00
43691;BME280;29293;52.190;21.226;2022-11-30T16:08:46;101785.14;;;0.63;100.00
43691;BME280;29293;52.190;21.226;2022-11-30T16:23:54;101786.39;;;0.63;100.00
43691;BME280;29293;52.190;21.226;2022-11-30T16:39:01;101786.11;;;0.66;100.00
43691;BME280;29293;52.190;21.226;2022-11-30T16:54:08;101790.92;;;0.65;100.00
43691;BME280;29293;52.190;21.226;2022-11-30T17:09:18;101803.17;;;0.63;100.00
43691;BME280;29293;52.190;21.226;2022-11-30T17:24:26;101813.27;;;0.57;100.00
43691;BME280;29293;52.190;21.226;2022-11-30T17:39:33;101815.29;;;0.56;100.00
43691;BME280;29293;52.190;21.226;2022-11-30T17:54:41;101821.05;;;0.58;100.00
43691;BME280;29293;52.190;21.226;2022-11-30T18:09:49;101819.70;;;0.57;100.00
43691;BME280;29293;52.190;21.226;2022-11-30T18:24:57;101820.55;;;0.61;100.00
43691;BME280;29293;52.190;21.226;2022-11-30T18:40:06;101826.54;;;0.66;100.00
43691;BME280;29293;52.190;21.226;2022-11-30T18:55:13;101831.64;;;0.63;100.00
43691;BME280;29293;52.190;21.226;2022-11-30T19:10:21;101831.70;;;0.59;100.00
43691;BME280;29293;52.190;21.226;2022-11-30T19:25:31;101830.69;;;0.54;100.00
43691;BME280;29293;52.190;21.226;2022-11-30T19:40:40;101834.89;;;0.52;100.00
43691;BME280;29293;52.190;21.226;2022-11-30T19:55:46;101840.10;;;0.51;100.00
43691;BME280;29293;52.190;21.226;2022-11-30T20:10:54;101849.36;;;0.48;100.00
43691;BME280;29293;52.190;21.226;2022-11-30T20:26:12;101865.29;;;0.53;100.00
43691;BME280;29293;52.190;21.226;2022-11-30T20:41:21;101865.98;;;0.57;100.00
43691;BME280;29293;52.190;21.226;2022-11-30T20:56:29;101868.27;;;0.58;100.00
43691;BME280;29293;52.190;21.226;2022-11-30T21:11:37;101871.90;;;0.60;100.00
43691;BME280;29293;52.190;21.226;2022-11-30T21:26:45;101873.02;;;0.59;100.00
43691;BME280;29293;52.190;21.226;2022-11-30T21:41:52;101881.63;;;0.61;100.00
43691;BME280;29293;52.190;21.226;2022-11-30T21:57:00;101871.52;;;0.61;100.00
43691;BME280;29293;52.190;21.226;2022-11-30T22:12:07;101871.03;;;0.60;100.00
43691;BME280;29293;52.190;21.226;2022-11-30T22:27:14;101867.07;;;0.57;100.00
43691;BME280;29293;52.190;21.226;2022-11-30T22:42:22;101866.67;;;0.54;100.00
43691;BME280;29293;52.190;21.226;2022-11-30T22:57:29;101862.47;;;0.53;100.00
43691;BME280;29293;52.190;21.226;2022-11-30T23:12:37;101859.67;;;0.52;100.00
43691;BME280;29293;52.190;21.226;2022-11-30T23:27:44;101847.87;;;0.45;100.00
43691;BME280;29293;52.190;21.226;2022-11-30T23:42:52;101840.70;;;0.39;100.00
43691;BME280;29293;52.190;21.226;2022-11-30T23:57:59;101845.46;;;0.36;100.00
